sensor_id;sensor_type;location;lat;lon;timestamp;temperature;humidity
10662;DHT22;5379;51.034;7.006;2022-07-29T00:01:39;25.70;89.20
10662;DHT22;5379;51.034;7.006;2022-07-29T00:04:06;25.90;90.10
10662;DHT22;5379;51.034;7.006;2022-07-29T00:06:33;25.70;89.40
10662;DHT22;5379;51.034;7.006;2022-07-29T00:09:00;25.80;89.80
10662;DHT22;5379;51.034;7.006;2022-07-29T00:11:27;25.70;89.50
10662;DHT22;5379;51.034;7.006;2022-07-29T00:13:55;25.60;90.00
10662;DHT22;5379;51.034;7.006;2022-07-29T00:16:22;25.60;90.10
10662;DHT22;5379;51.034;7.006;2022-07-29T00:18:49;25.50;90.10
10662;DHT22;5379;51.034;7.006;2022-07-29T00:21:16;25.40;90.30
10662;DHT22;5379;51.034;7.006;2022-07-29T00:23:43;25.50;90.00
10662;DHT22;5379;51.034;7.006;2022-07-29T00:26:10;25.50;90.50
10662;DHT22;5379;51.034;7.006;2022-07-29T00:28:37;25.40;90.30
10662;DHT22;5379;51.034;7.006;2022-07-29T00:31:06;25.40;90.30
10662;DHT22;5379;51.034;7.006;2022-07-29T00:33:33;25.40;90.40
10662;DHT22;5379;51.034;7.006;2022-07-29T00:36:00;25.40;90.20
10662;DHT22;5379;51.034;7.006;2022-07-29T00:38:26;25.40;90.20
10662;DHT22;5379;51.034;7.006;2022-07-29T00:40:53;25.30;90.10
10662;DHT22;5379;51.034;7.006;2022-07-29T00:43:21;25.40;90.70
10662;DHT22;5379;51.034;7.006;2022-07-29T00:45:48;25.30;90.30
10662;DHT22;5379;51.034;7.006;2022-07-29T00:48:17;25.20;90.40
10662;DHT22;5379;51.034;7.006;2022-07-29T00:50:44;25.20;90.60
10662;DHT22;5379;51.034;7.006;2022-07-29T00:53:12;25.20;90.70
10662;DHT22;5379;51.034;7.006;2022-07-29T00:55:39;25.10;90.60
10662;DHT22;5379;51.034;7.006;2022-07-29T00:58:06;25.00;90.70
10662;DHT22;5379;51.034;7.006;2022-07-29T01:00:33;25.00;90.80
10662;DHT22;5379;51.034;7.006;2022-07-29T01:03:00;24.90;90.90
10662;DHT22;5379;51.034;7.006;2022-07-29T01:05:30;24.90;90.90
10662;DHT22;5379;51.034;7.006;2022-07-29T01:07:57;24.90;91.00
10662;DHT22;5379;51.034;7.006;2022-07-29T01:10:26;24.90;91.20
10662;DHT22;5379;51.034;7.006;2022-07-29T01:12:55;24.90;91.10
10662;DHT22;5379;51.034;7.006;2022-07-29T01:15:23;24.90;91.10
10662;DHT22;5379;51.034;7.006;2022-07-29T01:17:56;24.80;91.00
10662;DHT22;5379;51.034;7.006;2022-07-29T01:20:35;24.80;91.20
10662;DHT22;5379;51.034;7.006;2022-07-29T01:23:25;24.70;91.20
10662;DHT22;5379;51.034;7.006;2022-07-29T01:26:03;24.70;91.40
10662;DHT22;5379;51.034;7.006;2022-07-29T01:28:48;24.80;91.30
10662;DHT22;5379;51.034;7.006;2022-07-29T01:31:22;24.70;91.50
10662;DHT22;5379;51.034;7.006;2022-07-29T01:33:57;24.60;91.30
10662;DHT22;5379;51.034;7.006;2022-07-29T01:36:30;24.60;91.20
10662;DHT22;5379;51.034;7.006;2022-07-29T01:39:04;24.60;91.40
10662;DHT22;5379;51.034;7.006;2022-07-29T01:41:34;24.60;91.40
10662;DHT22;5379;51.034;7.006;2022-07-29T01:44:13;24.60;91.50
10662;DHT22;5379;51.034;7.006;2022-07-29T01:46:46;24.50;91.70
10662;DHT22;5379;51.034;7.006;2022-07-29T01:49:18;24.60;91.80
10662;DHT22;5379;51.034;7.006;2022-07-29T01:51:50;24.70;91.70
10662;DHT22;5379;51.034;7.006;2022-07-29T01:54:21;24.60;91.50
10662;DHT22;5379;51.034;7.006;2022-07-29T01:56:53;24.60;91.60
10662;DHT22;5379;51.034;7.006;2022-07-29T01:59:23;24.60;91.40
10662;DHT22;5379;51.034;7.006;2022-07-29T02:01:54;24.60;91.50
10662;DHT22;5379;51.034;7.006;2022-07-29T02:04:22;24.60;91.70
10662;DHT22;5379;51.034;7.006;2022-07-29T02:06:51;24.80;91.80
10662;DHT22;5379;51.034;7.006;2022-07-29T02:09:21;24.80;91.70
10662;DHT22;5379;51.034;7.006;2022-07-29T02:11:51;24.80;91.60
10662;DHT22;5379;51.034;7.006;2022-07-29T02:14:20;24.80;91.80
10662;DHT22;5379;51.034;7.006;2022-07-29T02:16:53;24.70;91.70
10662;DHT22;5379;51.034;7.006;2022-07-29T02:19:22;24.60;91.60
10662;DHT22;5379;51.034;7.006;2022-07-29T02:21:51;24.60;91.70
10662;DHT22;5379;51.034;7.006;2022-07-29T02:24:20;24.50;91.80
10662;DHT22;5379;51.034;7.006;2022-07-29T02:26:49;24.60;92.10
10662;DHT22;5379;51.034;7.006;2022-07-29T02:29:20;24.50;91.70
10662;DHT22;5379;51.034;7.006;2022-07-29T02:31:50;24.40;92.00
10662;DHT22;5379;51.034;7.006;2022-07-29T02:34:19;24.40;91.80
10662;DHT22;5379;51.034;7.006;2022-07-29T02:36:47;24.30;92.00
10662;DHT22;5379;51.034;7.006;2022-07-29T02:39:15;24.30;92.20
10662;DHT22;5379;51.034;7.006;2022-07-29T02:41:45;24.20;92.20
10662;DHT22;5379;51.034;7.006;2022-07-29T02:44:14;24.10;92.20
10662;DHT22;5379;51.034;7.006;2022-07-29T02:46:46;24.00;92.40
10662;DHT22;5379;51.034;7.006;2022-07-29T02:49:21;23.90;92.60
10662;DHT22;5379;51.034;7.006;2022-07-29T02:51:54;23.80;92.60
10662;DHT22;5379;51.034;7.006;2022-07-29T02:54:29;23.80;92.80
10662;DHT22;5379;51.034;7.006;2022-07-29T02:57:00;23.90;92.80
10662;DHT22;5379;51.034;7.006;2022-07-29T02:59:31;23.90;92.90
10662;DHT22;5379;51.034;7.006;2022-07-29T03:02:02;24.00;92.60
10662;DHT22;5379;51.034;7.006;2022-07-29T03:04:34;24.10;92.90
10662;DHT22;5379;51.034;7.006;2022-07-29T03:07:02;24.10;92.70
10662;DHT22;5379;51.034;7.006;2022-07-29T03:09:30;24.40;92.20
10662;DHT22;5379;51.034;7.006;2022-07-29T03:11:58;24.90;91.50
10662;DHT22;5379;51.034;7.006;2022-07-29T03:14:26;24.90;91.30
10662;DHT22;5379;51.034;7.006;2022-07-29T03:16:53;25.20;91.40
10662;DHT22;5379;51.034;7.006;2022-07-29T03:19:21;25.40;91.60
10662;DHT22;5379;51.034;7.006;2022-07-29T03:21:50;25.20;91.20
10662;DHT22;5379;51.034;7.006;2022-07-29T03:24:30;25.10;91.20
10662;DHT22;5379;51.034;7.006;2022-07-29T03:26:58;25.10;92.20
10662;DHT22;5379;51.034;7.006;2022-07-29T03:29:25;25.20;91.60
10662;DHT22;5379;51.034;7.006;2022-07-29T03:31:53;24.80;91.70
10662;DHT22;5379;51.034;7.006;2022-07-29T03:34:20;24.40;92.20
10662;DHT22;5379;51.034;7.006;2022-07-29T03:36:48;24.20;92.60
10662;DHT22;5379;51.034;7.006;2022-07-29T03:39:18;24.20;92.50
10662;DHT22;5379;51.034;7.006;2022-07-29T03:41:49;24.20;92.50
10662;DHT22;5379;51.034;7.006;2022-07-29T03:44:18;24.00;92.10
10662;DHT22;5379;51.034;7.006;2022-07-29T03:46:46;24.10;92.10
10662;DHT22;5379;51.034;7.006;2022-07-29T03:49:15;24.40;91.60
10662;DHT22;5379;51.034;7.006;2022-07-29T03:51:43;24.30;91.80
10662;DHT22;5379;51.034;7.006;2022-07-29T03:54:10;24.30;92.00
10662;DHT22;5379;51.034;7.006;2022-07-29T03:56:41;24.30;91.60
10662;DHT22;5379;51.034;7.006;2022-07-29T03:59:12;24.30;91.40
10662;DHT22;5379;51.034;7.006;2022-07-29T04:01:40;24.20;91.10
10662;DHT22;5379;51.034;7.006;2022-07-29T04:04:08;24.40;90.80
10662;DHT22;5379;51.034;7.006;2022-07-29T04:06:39;24.10;90.70
10662;DHT22;5379;51.034;7.006;2022-07-29T04:09:07;24.10;90.80
10662;DHT22;5379;51.034;7.006;2022-07-29T04:11:35;24.00;91.20
10662;DHT22;5379;51.034;7.006;2022-07-29T04:14:03;24.40;91.50
10662;DHT22;5379;51.034;7.006;2022-07-29T04:16:31;24.20;90.50
10662;DHT22;5379;51.034;7.006;2022-07-29T04:18:58;24.00;90.50
10662;DHT22;5379;51.034;7.006;2022-07-29T04:21:26;23.70;90.70
10662;DHT22;5379;51.034;7.006;2022-07-29T04:23:53;23.50;90.90
10662;DHT22;5379;51.034;7.006;2022-07-29T04:26:20;23.80;91.50
10662;DHT22;5379;51.034;7.006;2022-07-29T04:28:47;24.00;90.80
10662;DHT22;5379;51.034;7.006;2022-07-29T04:31:16;23.90;90.50
10662;DHT22;5379;51.034;7.006;2022-07-29T04:33:43;23.40;90.90
10662;DHT22;5379;51.034;7.006;2022-07-29T04:36:10;23.00;91.10
10662;DHT22;5379;51.034;7.006;2022-07-29T04:38:38;22.60;91.40
10662;DHT22;5379;51.034;7.006;2022-07-29T04:41:05;22.50;91.70
10662;DHT22;5379;51.034;7.006;2022-07-29T04:43:34;22.40;92.10
10662;DHT22;5379;51.034;7.006;2022-07-29T04:46:01;22.60;91.80
10662;DHT22;5379;51.034;7.006;2022-07-29T04:48:30;22.40;91.80
10662;DHT22;5379;51.034;7.006;2022-07-29T04:50:57;22.40;92.00
10662;DHT22;5379;51.034;7.006;2022-07-29T04:53:24;22.40;92.00
10662;DHT22;5379;51.034;7.006;2022-07-29T04:55:51;22.10;92.00
10662;DHT22;5379;51.034;7.006;2022-07-29T04:58:18;22.40;92.40
10662;DHT22;5379;51.034;7.006;2022-07-29T05:00:45;22.50;92.20
10662;DHT22;5379;51.034;7.006;2022-07-29T05:03:12;22.70;92.20
10662;DHT22;5379;51.034;7.006;2022-07-29T05:05:41;23.00;91.70
10662;DHT22;5379;51.034;7.006;2022-07-29T05:08:08;23.10;91.70
10662;DHT22;5379;51.034;7.006;2022-07-29T05:10:35;23.20;91.40
10662;DHT22;5379;51.034;7.006;2022-07-29T05:13:04;23.10;91.30
10662;DHT22;5379;51.034;7.006;2022-07-29T05:15:32;23.20;91.60
10662;DHT22;5379;51.034;7.006;2022-07-29T05:17:59;23.40;91.40
10662;DHT22;5379;51.034;7.006;2022-07-29T05:20:26;23.20;91.20
10662;DHT22;5379;51.034;7.006;2022-07-29T05:22:55;23.30;91.40
10662;DHT22;5379;51.034;7.006;2022-07-29T05:25:23;23.20;91.20
10662;DHT22;5379;51.034;7.006;2022-07-29T05:27:50;23.50;91.40
10662;DHT22;5379;51.034;7.006;2022-07-29T05:30:17;23.70;91.20
10662;DHT22;5379;51.034;7.006;2022-07-29T05:32:44;23.70;91.10
10662;DHT22;5379;51.034;7.006;2022-07-29T05:35:12;23.50;91.10
10662;DHT22;5379;51.034;7.006;2022-07-29T05:37:40;23.50;91.30
10662;DHT22;5379;51.034;7.006;2022-07-29T05:40:09;23.70;91.50
10662;DHT22;5379;51.034;7.006;2022-07-29T05:42:36;23.70;91.10
10662;DHT22;5379;51.034;7.006;2022-07-29T05:45:04;23.70;91.30
10662;DHT22;5379;51.034;7.006;2022-07-29T05:47:31;23.70;91.30
10662;DHT22;5379;51.034;7.006;2022-07-29T05:49:58;23.80;91.10
10662;DHT22;5379;51.034;7.006;2022-07-29T05:52:25;23.80;91.20
10662;DHT22;5379;51.034;7.006;2022-07-29T05:54:52;23.80;91.30
10662;DHT22;5379;51.034;7.006;2022-07-29T05:57:22;23.80;91.30
10662;DHT22;5379;51.034;7.006;2022-07-29T05:59:50;23.80;91.20
10662;DHT22;5379;51.034;7.006;2022-07-29T06:02:17;24.00;91.30
10662;DHT22;5379;51.034;7.006;2022-07-29T06:04:45;24.10;91.20
10662;DHT22;5379;51.034;7.006;2022-07-29T06:07:12;24.10;91.30
10662;DHT22;5379;51.034;7.006;2022-07-29T06:09:39;24.30;91.40
10662;DHT22;5379;51.034;7.006;2022-07-29T06:12:06;24.10;91.10
10662;DHT22;5379;51.034;7.006;2022-07-29T06:14:35;24.20;91.30
10662;DHT22;5379;51.034;7.006;2022-07-29T06:17:03;24.40;91.50
10662;DHT22;5379;51.034;7.006;2022-07-29T06:19:31;24.30;90.90
10662;DHT22;5379;51.034;7.006;2022-07-29T06:21:58;24.30;91.00
10662;DHT22;5379;51.034;7.006;2022-07-29T06:24:25;24.40;91.00
10662;DHT22;5379;51.034;7.006;2022-07-29T06:26:52;24.60;91.00
10662;DHT22;5379;51.034;7.006;2022-07-29T06:29:19;24.60;90.80
10662;DHT22;5379;51.034;7.006;2022-07-29T06:31:48;24.60;90.80
10662;DHT22;5379;51.034;7.006;2022-07-29T06:34:15;24.40;90.80
10662;DHT22;5379;51.034;7.006;2022-07-29T06:36:42;24.50;90.50
10662;DHT22;5379;51.034;7.006;2022-07-29T06:39:09;24.30;90.70
10662;DHT22;5379;51.034;7.006;2022-07-29T06:41:36;24.40;90.90
10662;DHT22;5379;51.034;7.006;2022-07-29T06:44:03;24.40;91.10
10662;DHT22;5379;51.034;7.006;2022-07-29T06:46:31;24.50;91.00
10662;DHT22;5379;51.034;7.006;2022-07-29T06:48:59;24.70;91.10
10662;DHT22;5379;51.034;7.006;2022-07-29T06:51:28;24.80;90.70
10662;DHT22;5379;51.034;7.006;2022-07-29T06:53:55;25.30;91.30
10662;DHT22;5379;51.034;7.006;2022-07-29T06:56:23;25.70;90.40
10662;DHT22;5379;51.034;7.006;2022-07-29T06:58:50;25.80;90.10
10662;DHT22;5379;51.034;7.006;2022-07-29T07:01:17;25.90;90.70
10662;DHT22;5379;51.034;7.006;2022-07-29T07:03:45;26.00;90.20
10662;DHT22;5379;51.034;7.006;2022-07-29T07:06:13;26.10;90.30
10662;DHT22;5379;51.034;7.006;2022-07-29T07:08:40;25.90;90.10
10662;DHT22;5379;51.034;7.006;2022-07-29T07:11:08;25.90;89.80
10662;DHT22;5379;51.034;7.006;2022-07-29T07:13:35;25.80;90.10
10662;DHT22;5379;51.034;7.006;2022-07-29T07:16:02;25.60;90.30
10662;DHT22;5379;51.034;7.006;2022-07-29T07:18:29;25.70;90.10
10662;DHT22;5379;51.034;7.006;2022-07-29T07:20:57;25.60;90.70
10662;DHT22;5379;51.034;7.006;2022-07-29T07:23:26;25.90;90.70
10662;DHT22;5379;51.034;7.006;2022-07-29T07:25:53;26.10;91.00
10662;DHT22;5379;51.034;7.006;2022-07-29T07:28:20;26.60;91.40
10662;DHT22;5379;51.034;7.006;2022-07-29T07:30:47;26.80;90.90
10662;DHT22;5379;51.034;7.006;2022-07-29T07:33:14;27.00;91.40
10662;DHT22;5379;51.034;7.006;2022-07-29T07:35:41;27.10;91.50
10662;DHT22;5379;51.034;7.006;2022-07-29T07:38:08;27.00;92.80
10662;DHT22;5379;51.034;7.006;2022-07-29T07:40:37;27.00;92.60
10662;DHT22;5379;51.034;7.006;2022-07-29T07:43:04;26.90;92.80
10662;DHT22;5379;51.034;7.006;2022-07-29T07:45:31;26.70;93.20
10662;DHT22;5379;51.034;7.006;2022-07-29T07:47:59;26.40;93.50
10662;DHT22;5379;51.034;7.006;2022-07-29T07:50:26;26.20;93.70
10662;DHT22;5379;51.034;7.006;2022-07-29T07:52:55;25.80;94.10
10662;DHT22;5379;51.034;7.006;2022-07-29T07:55:23;25.80;94.60
10662;DHT22;5379;51.034;7.006;2022-07-29T07:57:52;25.90;94.30
10662;DHT22;5379;51.034;7.006;2022-07-29T08:00:20;25.90;94.40
10662;DHT22;5379;51.034;7.006;2022-07-29T08:02:47;26.00;95.20
10662;DHT22;5379;51.034;7.006;2022-07-29T08:05:15;26.40;94.20
10662;DHT22;5379;51.034;7.006;2022-07-29T08:07:45;26.60;94.30
10662;DHT22;5379;51.034;7.006;2022-07-29T08:10:12;26.60;94.00
10662;DHT22;5379;51.034;7.006;2022-07-29T08:12:39;26.60;93.50
10662;DHT22;5379;51.034;7.006;2022-07-29T08:15:09;26.70;94.20
10662;DHT22;5379;51.034;7.006;2022-07-29T08:17:36;26.90;93.50
10662;DHT22;5379;51.034;7.006;2022-07-29T08:20:04;27.20;92.30
10662;DHT22;5379;51.034;7.006;2022-07-29T08:22:31;27.30;91.80
10662;DHT22;5379;51.034;7.006;2022-07-29T08:24:58;27.40;91.80
10662;DHT22;5379;51.034;7.006;2022-07-29T08:27:25;27.00;93.60
10662;DHT22;5379;51.034;7.006;2022-07-29T08:29:55;26.60;93.70
10662;DHT22;5379;51.034;7.006;2022-07-29T08:32:24;26.50;94.60
10662;DHT22;5379;51.034;7.006;2022-07-29T08:34:51;26.40;94.80
10662;DHT22;5379;51.034;7.006;2022-07-29T08:37:18;26.20;94.60
10662;DHT22;5379;51.034;7.006;2022-07-29T08:39:45;26.00;95.40
10662;DHT22;5379;51.034;7.006;2022-07-29T08:42:12;25.80;94.60
10662;DHT22;5379;51.034;7.006;2022-07-29T08:44:39;25.70;95.20
10662;DHT22;5379;51.034;7.006;2022-07-29T08:47:06;25.70;96.00
10662;DHT22;5379;51.034;7.006;2022-07-29T08:49:35;25.60;95.90
10662;DHT22;5379;51.034;7.006;2022-07-29T08:52:02;25.60;95.50
10662;DHT22;5379;51.034;7.006;2022-07-29T08:54:30;25.70;96.00
10662;DHT22;5379;51.034;7.006;2022-07-29T08:56:57;25.70;96.10
10662;DHT22;5379;51.034;7.006;2022-07-29T08:59:27;25.60;95.50
10662;DHT22;5379;51.034;7.006;2022-07-29T09:01:54;25.40;95.70
10662;DHT22;5379;51.034;7.006;2022-07-29T09:04:27;25.50;95.50
10662;DHT22;5379;51.034;7.006;2022-07-29T09:07:00;25.60;96.00
10662;DHT22;5379;51.034;7.006;2022-07-29T09:09:27;26.10;95.50
10662;DHT22;5379;51.034;7.006;2022-07-29T09:11:54;26.30;95.30
10662;DHT22;5379;51.034;7.006;2022-07-29T09:14:21;26.60;94.90
10662;DHT22;5379;51.034;7.006;2022-07-29T09:16:51;27.00;93.50
10662;DHT22;5379;51.034;7.006;2022-07-29T09:19:24;27.00;94.60
10662;DHT22;5379;51.034;7.006;2022-07-29T09:21:52;27.10;94.00
10662;DHT22;5379;51.034;7.006;2022-07-29T09:24:43;27.30;93.30
10662;DHT22;5379;51.034;7.006;2022-07-29T09:27:21;26.90;94.50
10662;DHT22;5379;51.034;7.006;2022-07-29T09:29:56;27.20;93.80
10662;DHT22;5379;51.034;7.006;2022-07-29T09:32:24;27.50;92.70
10662;DHT22;5379;51.034;7.006;2022-07-29T09:35:15;27.30;92.50
10662;DHT22;5379;51.034;7.006;2022-07-29T09:37:43;27.30;92.60
10662;DHT22;5379;51.034;7.006;2022-07-29T09:40:16;27.30;93.20
10662;DHT22;5379;51.034;7.006;2022-07-29T09:42:44;27.20;93.90
10662;DHT22;5379;51.034;7.006;2022-07-29T09:45:12;27.00;94.30
10662;DHT22;5379;51.034;7.006;2022-07-29T09:47:44;26.80;94.70
10662;DHT22;5379;51.034;7.006;2022-07-29T09:50:12;26.80;95.10
10662;DHT22;5379;51.034;7.006;2022-07-29T09:52:47;27.00;94.60
10662;DHT22;5379;51.034;7.006;2022-07-29T09:55:17;26.90;94.50
10662;DHT22;5379;51.034;7.006;2022-07-29T09:57:44;27.20;93.00
10662;DHT22;5379;51.034;7.006;2022-07-29T10:00:13;27.40;93.10
10662;DHT22;5379;51.034;7.006;2022-07-29T10:02:42;27.40;93.40
10662;DHT22;5379;51.034;7.006;2022-07-29T10:05:20;27.50;92.70
10662;DHT22;5379;51.034;7.006;2022-07-29T10:07:49;27.50;92.60
10662;DHT22;5379;51.034;7.006;2022-07-29T10:10:23;27.40;92.40
10662;DHT22;5379;51.034;7.006;2022-07-29T10:12:53;27.20;92.80
10662;DHT22;5379;51.034;7.006;2022-07-29T10:15:23;27.20;93.40
10662;DHT22;5379;51.034;7.006;2022-07-29T10:17:51;27.20;94.30
10662;DHT22;5379;51.034;7.006;2022-07-29T10:20:18;27.30;92.90
10662;DHT22;5379;51.034;7.006;2022-07-29T10:22:46;27.40;93.20
10662;DHT22;5379;51.034;7.006;2022-07-29T10:25:14;27.40;92.90
10662;DHT22;5379;51.034;7.006;2022-07-29T10:27:43;27.10;94.00
10662;DHT22;5379;51.034;7.006;2022-07-29T10:30:13;27.10;94.30
10662;DHT22;5379;51.034;7.006;2022-07-29T10:33:06;27.40;92.90
10662;DHT22;5379;51.034;7.006;2022-07-29T10:35:59;27.30;92.70
10662;DHT22;5379;51.034;7.006;2022-07-29T10:38:52;27.20;93.10
10662;DHT22;5379;51.034;7.006;2022-07-29T10:41:49;27.20;93.10
10662;DHT22;5379;51.034;7.006;2022-07-29T10:44:19;27.20;93.70
10662;DHT22;5379;51.034;7.006;2022-07-29T10:46:47;27.30;93.20
10662;DHT22;5379;51.034;7.006;2022-07-29T10:49:15;27.30;92.60
10662;DHT22;5379;51.034;7.006;2022-07-29T10:52:04;27.30;93.60
10662;DHT22;5379;51.034;7.006;2022-07-29T10:54:44;27.40;92.90
10662;DHT22;5379;51.034;7.006;2022-07-29T10:57:18;27.50;92.90
10662;DHT22;5379;51.034;7.006;2022-07-29T10:59:48;27.30;93.50
10662;DHT22;5379;51.034;7.006;2022-07-29T11:02:41;27.00;93.70
10662;DHT22;5379;51.034;7.006;2022-07-29T11:05:11;26.90;93.20
10662;DHT22;5379;51.034;7.006;2022-07-29T11:07:39;26.60;93.70
10662;DHT22;5379;51.034;7.006;2022-07-29T11:10:21;26.40;93.50
10662;DHT22;5379;51.034;7.006;2022-07-29T11:12:48;26.50;93.80
10662;DHT22;5379;51.034;7.006;2022-07-29T11:15:19;26.40;93.70
10662;DHT22;5379;51.034;7.006;2022-07-29T11:18:06;26.50;94.30
10662;DHT22;5379;51.034;7.006;2022-07-29T11:20:36;26.60;93.50
10662;DHT22;5379;51.034;7.006;2022-07-29T11:23:18;26.60;93.50
10662;DHT22;5379;51.034;7.006;2022-07-29T11:25:46;26.60;93.40
10662;DHT22;5379;51.034;7.006;2022-07-29T11:28:34;26.30;93.70
10662;DHT22;5379;51.034;7.006;2022-07-29T11:31:04;26.20;93.80
10662;DHT22;5379;51.034;7.006;2022-07-29T11:33:33;26.50;93.80
10662;DHT22;5379;51.034;7.006;2022-07-29T11:36:11;26.80;93.70
10662;DHT22;5379;51.034;7.006;2022-07-29T11:38:38;26.80;93.20
10662;DHT22;5379;51.034;7.006;2022-07-29T11:41:25;26.80;93.20
10662;DHT22;5379;51.034;7.006;2022-07-29T11:43:54;26.70;93.40
10662;DHT22;5379;51.034;7.006;2022-07-29T11:46:44;26.60;93.50
10662;DHT22;5379;51.034;7.006;2022-07-29T11:49:12;26.90;93.10
10662;DHT22;5379;51.034;7.006;2022-07-29T11:51:39;27.00;93.10
10662;DHT22;5379;51.034;7.006;2022-07-29T11:54:10;26.80;93.20
10662;DHT22;5379;51.034;7.006;2022-07-29T11:56:41;26.60;93.40
10662;DHT22;5379;51.034;7.006;2022-07-29T11:59:11;26.60;93.60
10662;DHT22;5379;51.034;7.006;2022-07-29T12:01:53;26.60;93.30
10662;DHT22;5379;51.034;7.006;2022-07-29T12:04:20;26.70;93.50
10662;DHT22;5379;51.034;7.006;2022-07-29T12:06:49;26.50;93.20
10662;DHT22;5379;51.034;7.006;2022-07-29T12:09:17;26.60;93.50
10662;DHT22;5379;51.034;7.006;2022-07-29T12:11:45;26.50;93.50
10662;DHT22;5379;51.034;7.006;2022-07-29T12:14:25;26.50;93.40
10662;DHT22;5379;51.034;7.006;2022-07-29T12:16:54;26.30;93.30
10662;DHT22;5379;51.034;7.006;2022-07-29T12:19:21;26.20;93.70
10662;DHT22;5379;51.034;7.006;2022-07-29T12:21:50;26.00;92.50
10662;DHT22;5379;51.034;7.006;2022-07-29T12:24:18;26.40;91.90
10662;DHT22;5379;51.034;7.006;2022-07-29T12:26:52;26.60;91.70
10662;DHT22;5379;51.034;7.006;2022-07-29T12:29:20;26.90;91.40
10662;DHT22;5379;51.034;7.006;2022-07-29T12:31:53;27.10;92.30
10662;DHT22;5379;51.034;7.006;2022-07-29T12:34:23;26.90;92.10
10662;DHT22;5379;51.034;7.006;2022-07-29T12:36:50;26.90;92.10
10662;DHT22;5379;51.034;7.006;2022-07-29T12:39:17;27.00;92.50
10662;DHT22;5379;51.034;7.006;2022-07-29T12:41:45;26.70;91.80
10662;DHT22;5379;51.034;7.006;2022-07-29T12:44:13;26.90;92.60
10662;DHT22;5379;51.034;7.006;2022-07-29T12:46:40;26.60;93.10
10662;DHT22;5379;51.034;7.006;2022-07-29T12:49:08;26.40;93.40
10662;DHT22;5379;51.034;7.006;2022-07-29T12:51:37;26.40;91.70
10662;DHT22;5379;51.034;7.006;2022-07-29T12:54:07;26.60;91.70
10662;DHT22;5379;51.034;7.006;2022-07-29T12:56:36;27.00;91.90
10662;DHT22;5379;51.034;7.006;2022-07-29T12:59:12;26.90;91.30
10662;DHT22;5379;51.034;7.006;2022-07-29T13:01:39;27.00;91.90
10662;DHT22;5379;51.034;7.006;2022-07-29T13:04:08;26.90;91.30
10662;DHT22;5379;51.034;7.006;2022-07-29T13:06:37;27.20;92.20
10662;DHT22;5379;51.034;7.006;2022-07-29T13:09:07;27.30;92.30
10662;DHT22;5379;51.034;7.006;2022-07-29T13:11:36;27.10;92.30
10662;DHT22;5379;51.034;7.006;2022-07-29T13:14:05;27.00;92.30
10662;DHT22;5379;51.034;7.006;2022-07-29T13:16:32;27.10;92.30
10662;DHT22;5379;51.034;7.006;2022-07-29T13:19:09;27.00;91.60
10662;DHT22;5379;51.034;7.006;2022-07-29T13:21:36;26.90;91.70
10662;DHT22;5379;51.034;7.006;2022-07-29T13:24:05;27.00;91.10
10662;DHT22;5379;51.034;7.006;2022-07-29T13:26:32;27.30;92.00
10662;DHT22;5379;51.034;7.006;2022-07-29T13:28:59;27.00;92.60
10662;DHT22;5379;51.034;7.006;2022-07-29T13:31:27;27.00;92.20
10662;DHT22;5379;51.034;7.006;2022-07-29T13:33:54;26.90;92.00
10662;DHT22;5379;51.034;7.006;2022-07-29T13:36:23;27.10;91.50
10662;DHT22;5379;51.034;7.006;2022-07-29T13:38:50;27.30;91.90
10662;DHT22;5379;51.034;7.006;2022-07-29T13:41:17;27.00;91.50
10662;DHT22;5379;51.034;7.006;2022-07-29T13:43:44;27.00;92.30
10662;DHT22;5379;51.034;7.006;2022-07-29T13:46:11;26.90;92.40
10662;DHT22;5379;51.034;7.006;2022-07-29T13:48:38;26.50;92.60
10662;DHT22;5379;51.034;7.006;2022-07-29T13:51:05;26.50;92.70
10662;DHT22;5379;51.034;7.006;2022-07-29T13:53:34;26.80;92.20
10662;DHT22;5379;51.034;7.006;2022-07-29T13:56:01;26.80;92.80
10662;DHT22;5379;51.034;7.006;2022-07-29T13:58:28;26.40;93.10
10662;DHT22;5379;51.034;7.006;2022-07-29T14:00:55;26.30;93.30
10662;DHT22;5379;51.034;7.006;2022-07-29T14:03:23;26.10;93.50
10662;DHT22;5379;51.034;7.006;2022-07-29T14:05:50;26.20;93.40
10662;DHT22;5379;51.034;7.006;2022-07-29T14:08:17;26.40;93.00
10662;DHT22;5379;51.034;7.006;2022-07-29T14:10:45;26.70;93.10
10662;DHT22;5379;51.034;7.006;2022-07-29T14:13:12;26.70;93.10
10662;DHT22;5379;51.034;7.006;2022-07-29T14:15:39;26.60;93.20
10662;DHT22;5379;51.034;7.006;2022-07-29T14:18:06;26.50;93.10
10662;DHT22;5379;51.034;7.006;2022-07-29T14:20:33;26.40;93.50
10662;DHT22;5379;51.034;7.006;2022-07-29T14:23:00;26.20;92.10
10662;DHT22;5379;51.034;7.006;2022-07-29T14:25:27;26.70;92.90
10662;DHT22;5379;51.034;7.006;2022-07-29T14:27:56;26.60;92.80
10662;DHT22;5379;51.034;7.006;2022-07-29T14:30:23;26.80;93.10
10662;DHT22;5379;51.034;7.006;2022-07-29T14:32:50;27.00;92.20
10662;DHT22;5379;51.034;7.006;2022-07-29T14:35:17;27.00;92.90
10662;DHT22;5379;51.034;7.006;2022-07-29T14:37:44;26.90;92.30
10662;DHT22;5379;51.034;7.006;2022-07-29T14:40:11;27.40;92.60
10662;DHT22;5379;51.034;7.006;2022-07-29T14:42:39;27.30;92.50
10662;DHT22;5379;51.034;7.006;2022-07-29T14:45:08;26.70;93.10
10662;DHT22;5379;51.034;7.006;2022-07-29T14:47:36;26.40;93.40
10662;DHT22;5379;51.034;7.006;2022-07-29T14:50:04;26.40;93.80
10662;DHT22;5379;51.034;7.006;2022-07-29T14:52:32;26.30;93.40
10662;DHT22;5379;51.034;7.006;2022-07-29T14:54:59;26.40;93.40
10662;DHT22;5379;51.034;7.006;2022-07-29T14:57:26;26.10;93.70
10662;DHT22;5379;51.034;7.006;2022-07-29T14:59:54;25.90;93.70
10662;DHT22;5379;51.034;7.006;2022-07-29T15:02:22;25.90;94.00
10662;DHT22;5379;51.034;7.006;2022-07-29T15:04:49;26.00;92.50
10662;DHT22;5379;51.034;7.006;2022-07-29T15:07:16;26.80;92.70
10662;DHT22;5379;51.034;7.006;2022-07-29T15:09:43;26.90;93.70
10662;DHT22;5379;51.034;7.006;2022-07-29T15:12:11;27.00;92.90
10662;DHT22;5379;51.034;7.006;2022-07-29T15:14:38;27.10;92.40
10662;DHT22;5379;51.034;7.006;2022-07-29T15:17:05;27.40;92.60
10662;DHT22;5379;51.034;7.006;2022-07-29T15:19:34;27.50;93.00
10662;DHT22;5379;51.034;7.006;2022-07-29T15:22:01;27.10;93.00
10662;DHT22;5379;51.034;7.006;2022-07-29T15:24:30;27.10;92.00
10662;DHT22;5379;51.034;7.006;2022-07-29T15:26:57;27.20;92.80
10662;DHT22;5379;51.034;7.006;2022-07-29T15:29:24;27.20;91.60
10662;DHT22;5379;51.034;7.006;2022-07-29T15:31:51;27.20;92.70
10662;DHT22;5379;51.034;7.006;2022-07-29T15:34:18;26.90;93.20
10662;DHT22;5379;51.034;7.006;2022-07-29T15:36:50;26.50;93.10
10662;DHT22;5379;51.034;7.006;2022-07-29T15:39:17;26.70;93.40
10662;DHT22;5379;51.034;7.006;2022-07-29T15:41:44;26.50;93.70
10662;DHT22;5379;51.034;7.006;2022-07-29T15:44:11;26.60;93.50
10662;DHT22;5379;51.034;7.006;2022-07-29T15:46:38;26.80;93.40
10662;DHT22;5379;51.034;7.006;2022-07-29T15:49:22;27.10;93.10
10662;DHT22;5379;51.034;7.006;2022-07-29T15:51:57;27.10;91.90
10662;DHT22;5379;51.034;7.006;2022-07-29T15:54:25;27.40;92.00
10662;DHT22;5379;51.034;7.006;2022-07-29T15:56:52;27.50;92.60
10662;DHT22;5379;51.034;7.006;2022-07-29T15:59:19;27.40;92.30